Jones, AL (36749)

8:37 PM CST on January 29, 2015 (GMT -0600)
Kingston Pines | Change Station
CLOSE
Current Station
Personal Weather Station
Location: Prattville, AL
Elevation: 538 ft
Nearby Weather Stations

Elev 538 ft 32.55 °N, 86.55 °W | Updated 5 minutes ago

Partly Cloudy
Partly Cloudy
59.7 °F
Feels Like 59.7 °F
N
0.0
Wind Variable Wind from NNW

Today
High -- | Low -- °F
--% Chance of Precip.
Yesterday
High -- | Low -- °F
Precip. -- in
6:43 AM 5:17 PM
Waxing Gibbous, 79% visible
Pressure 30.14 in
Visibility 10.0 miles
Clouds Few 8000 ft
Mostly Cloudy 23000 ft
Dew Point 45 °F
Humidity 59%
Rainfall 0.00 in
Snow Depth Not available.
UV 0 out of 12
Pollen 3.90 out of 12
Air Quality Not available.
Flu Activity Not available.
METAR KMXF 300158Z AUTO 20006KT 10SM FEW080 BKN230 16/10 A3013 RMK AO2 SLP206 T01590099

More Conditions Fewer Conditions

Pressure 30.14 in
Visibility 10.0 miles
Clouds Few 8000 ft
Mostly Cloudy 23000 ft
Dew Point 45 °F
Humidity 59%
Rainfall 0.00 in
Snow Depth Not available.
UV 0 out of 12
Pollen 3.90 out of 12
Air Quality Not available.
Flu Activity Not available.
METAR KMXF 300158Z AUTO 20006KT 10SM FEW080 BKN230 16/10 A3013 RMK AO2 SLP206 T01590099

More Conditions Fewer Conditions

10-Day Weather Forecast

Almanac

Astronomy

Jan. 29, 2015 Rise Set
Actual Time
Civil Twilight
Nautical Twilight
Astronomical Twilight
Moon
Length of Visible Light
Length of Day
Tomorrow will be .
, % of the Moon is Illuminated

Today's Extremes

State Highs State Lows

Community

WunderPhotos

Upload Photos

1,791,695 photos uploaded!

WunderBlogs® & News

Nearby

Air Quality

  Air Quality AQ Index Pollutant
Not available.

Snow Depth

Station Depth Elevation

Earthquake Activity

City Distance Mag. Time & Date
Minimum magnitude displayed is 2.5.

Coastal Water Temperatures

Place Temperature

Nearby Weather Stations